Time;durP1;ratioP1;P1;durP2;ratioP2;P2;SDS_P1;SDS_P2;PMS_P1;PMS_P2;Temp;Humidity;BMP_temperature;BMP_pressure;BME280_temperature;BME280_humidity;BME280_pressure;Samples;Min_cycle;Max_cycle;Signal;HPM_P1;HPM_P2
2024/04/23 04:07:23;;;;;;;1.30;1.20;;;-1.40;97.30;;;;;;5361384;26;20513;-86
2024/04/23 04:09:48;;;;;;;1.70;1.60;;;-1.40;97.30;;;;;;5371461;26;20468;-86
2024/04/23 04:12:14;;;;;;;1.00;0.90;;;-1.40;97.30;;;;;;5375857;26;20280;-87
2024/04/23 04:14:39;;;;;;;1.40;1.30;;;-1.40;97.30;;;;;;5368628;26;20336;-86
2024/04/23 04:17:05;;;;;;;5.77;1.40;;;-1.40;97.30;;;;;;5370344;26;20239;-86
2024/04/23 04:19:30;;;;;;;2.50;2.30;;;-1.40;97.30;;;;;;5370132;26;20273;-87
2024/04/23 04:21:57;;;;;;;1.73;1.67;;;-1.40;97.30;;;;;;5370133;26;20250;-85
2024/04/23 04:24:23;;;;;;;1.73;1.67;;;-1.40;97.30;;;;;;5383942;26;20309;-86
2024/04/23 04:26:48;;;;;;;1.00;0.90;;;-1.40;97.30;;;;;;5374888;26;20713;-84
2024/04/23 04:29:14;;;;;;;1.57;1.40;;;-1.40;97.30;;;;;;5358671;26;20636;-85
2024/04/23 04:31:39;;;;;;;1.77;1.67;;;-1.40;97.30;;;;;;5373895;26;20585;-86
2024/04/23 04:34:05;;;;;;;1.43;1.13;;;-1.40;97.30;;;;;;5366142;26;20253;-86
2024/04/23 04:36:30;;;;;;;4.20;1.20;;;-1.30;97.30;;;;;;5369405;26;20230;-87
2024/04/23 04:38:56;;;;;;;1.40;1.30;;;-1.30;97.30;;;;;;5375999;26;20234;-86
2024/04/23 04:41:22;;;;;;;2.10;1.80;;;-1.30;97.30;;;;;;5379886;26;20312;-87
2024/04/23 04:43:48;;;;;;;1.80;1.73;;;-1.20;97.30;;;;;;5377807;26;20265;-85
2024/04/23 04:46:14;;;;;;;4.43;1.40;;;-1.20;97.30;;;;;;5376938;26;20460;-84
2024/04/23 04:48:39;;;;;;;5.37;3.33;;;-1.20;97.30;;;;;;5366939;26;20481;-86
2024/04/23 04:51:05;;;;;;;1.30;1.20;;;-1.10;97.30;;;;;;5370764;26;20331;-85
2024/04/23 04:53:30;;;;;;;1.10;1.00;;;-1.00;97.30;;;;;;5369130;26;20242;-84
2024/04/23 04:55:56;;;;;;;1.43;1.33;;;-1.00;97.30;;;;;;5357281;26;20243;-85
2024/04/23 04:58:21;;;;;;;2.30;2.10;;;-1.00;97.30;;;;;;5367940;26;20678;-86
2024/04/23 05:00:51;;;;;;;2.70;1.77;;;-0.90;97.30;;;;;;5378785;26;20238;-86
2024/04/23 05:03:17;;;;;;;2.57;2.37;;;-0.90;97.30;;;;;;5376114;26;20238;-87
2024/04/23 05:05:42;;;;;;;2.07;1.93;;;-0.90;97.30;;;;;;5377748;26;20731;-86
2024/04/23 05:08:08;;;;;;;1.33;1.23;;;-0.80;97.30;;;;;;5374898;26;20238;-88
2024/04/23 05:10:33;;;;;;;1.63;1.53;;;-0.80;97.30;;;;;;5378884;26;20237;-87
2024/04/23 05:12:59;;;;;;;1.80;1.30;;;-0.70;97.30;;;;;;5375081;26;20735;-84
2024/04/23 05:15:24;;;;;;;1.87;1.30;;;-0.70;97.30;;;;;;5372117;26;20264;-86
2024/04/23 05:17:50;;;;;;;1.90;1.80;;;-0.60;97.30;;;;;;5380182;26;20284;-86
2024/04/23 05:20:15;;;;;;;1.73;1.63;;;-0.60;97.30;;;;;;5370952;26;20238;-88
2024/04/23 05:22:41;;;;;;;3.03;1.63;;;-0.50;97.30;;;;;;5370113;26;20259;-86
2024/04/23 05:25:07;;;;;;;2.70;2.30;;;-0.50;97.30;;;;;;5375283;26;20242;-86
2024/04/23 05:27:32;;;;;;;1.43;1.33;;;-0.40;97.30;;;;;;5361424;26;20265;-86
2024/04/23 05:29:58;;;;;;;1.90;1.80;;;-0.30;97.30;;;;;;5362132;26;20249;-85
2024/04/23 05:35:09;;;;;;;2.00;1.53;;;-0.20;97.30;;;;;;5359147;26;20313;-85
2024/04/23 05:37:34;;;;;;;5.00;2.27;;;-0.10;97.30;;;;;;5373729;26;20906;-86
2024/04/23 05:40:00;;;;;;;3.90;3.70;;;0.00;97.30;;;;;;5378150;26;20944;-86
2024/04/23 05:42:25;;;;;;;2.90;2.70;;;0.10;97.30;;;;;;5374581;26;20245;-86
2024/04/23 05:44:51;;;;;;;1.93;1.83;;;0.20;97.30;;;;;;5376872;26;20778;-86
2024/04/23 05:47:16;;;;;;;7.10;2.23;;;0.30;97.30;;;;;;5366711;26;20885;-87
2024/04/23 05:50:20;;;;;;;5.13;2.70;;;0.40;97.30;;;;;;5362223;26;20248;-86
2024/04/23 05:53:23;;;;;;;1.33;1.23;;;0.50;97.30;;;;;;5374822;26;20307;-84
2024/04/23 05:55:49;;;;;;;2.60;1.70;;;0.60;97.30;;;;;;5378114;26;20489;-86
2024/04/23 05:58:14;;;;;;;1.50;1.27;;;0.70;97.30;;;;;;5377187;26;20520;-86
2024/04/23 06:00:40;;;;;;;1.43;1.33;;;0.80;97.30;;;;;;5374555;26;20238;-87
2024/04/23 06:03:05;;;;;;;1.83;1.73;;;1.00;97.30;;;;;;5363211;26;20235;-85
2024/04/23 06:05:31;;;;;;;1.47;1.37;;;1.10;97.30;;;;;;5366858;26;20238;-86
2024/04/23 06:07:57;;;;;;;4.00;1.73;;;1.20;97.30;;;;;;5353583;26;20231;-86
2024/04/23 06:10:23;;;;;;;1.10;1.00;;;1.30;97.30;;;;;;5367058;26;20242;-85
2024/04/23 06:12:49;;;;;;;1.20;1.10;;;1.40;97.30;;;;;;5362217;26;20502;-86
2024/04/23 06:15:14;;;;;;;2.93;2.40;;;1.50;97.30;;;;;;5355865;26;20277;-86
2024/04/23 06:17:40;;;;;;;1.47;1.37;;;1.60;97.30;;;;;;5376494;26;20261;-87
2024/04/23 06:20:08;;;;;;;2.00;1.60;;;1.70;97.30;;;;;;5367406;26;20642;-86
2024/04/23 06:22:42;;;;;;;4.87;3.60;;;1.80;97.30;;;;;;5356340;26;20468;-87
2024/04/23 06:25:08;;;;;;;1.30;1.20;;;1.90;97.30;;;;;;5372080;26;20558;-87
2024/04/23 06:27:36;;;;;;;1.83;1.73;;;2.00;97.30;;;;;;5377770;26;21066;-86
2024/04/23 06:30:11;;;;;;;1.60;1.50;;;2.20;97.30;;;;;;5368278;26;20477;-86
2024/04/23 06:32:37;;;;;;;1.80;1.70;;;2.30;97.30;;;;;;5374251;26;20582;-86
2024/04/23 06:35:03;;;;;;;1.73;1.63;;;2.50;97.30;;;;;;5377248;26;21044;-87
2024/04/23 06:37:29;;;;;;;2.30;2.10;;;2.60;97.30;;;;;;5358309;26;20556;-87
2024/04/23 06:39:55;;;;;;;1.90;1.80;;;2.60;97.30;;;;;;5368218;26;20468;-87
2024/04/23 06:42:21;;;;;;;1.60;1.50;;;2.80;97.30;;;;;;5367390;26;20273;-87
2024/04/23 06:44:47;;;;;;;1.20;1.20;;;2.90;97.30;;;;;;5367840;26;20226;-86
2024/04/23 06:47:12;;;;;;;3.47;2.10;;;3.00;97.30;;;;;;5357838;26;20509;-86
2024/04/23 06:49:40;;;;;;;1.37;1.30;;;3.10;97.30;;;;;;5372840;26;20340;-87
2024/04/23 06:52:08;;;;;;;3.53;2.27;;;3.20;97.30;;;;;;5371514;26;20317;-87
2024/04/23 06:54:34;;;;;;;4.50;3.33;;;3.30;97.30;;;;;;5367408;26;20468;-87
2024/04/23 06:57:00;;;;;;;4.17;2.00;;;3.50;97.30;;;;;;5376666;26;20604;-87
2024/04/23 06:59:25;;;;;;;2.00;1.83;;;3.60;97.30;;;;;;5377630;26;20234;-85
2024/04/23 07:01:51;;;;;;;3.17;2.07;;;3.80;97.30;;;;;;5353360;26;20243;-87
2024/04/23 07:04:17;;;;;;;1.43;1.33;;;3.90;97.30;;;;;;5366142;26;20627;-87
2024/04/23 07:06:43;;;;;;;3.93;2.10;;;4.00;97.30;;;;;;5372132;26;20233;-87
2024/04/23 07:09:10;;;;;;;1.70;1.43;;;4.10;97.30;;;;;;5371831;26;20533;-86
2024/04/23 07:11:36;;;;;;;1.80;1.70;;;4.20;97.30;;;;;;5373064;26;20516;-86
2024/04/23 07:14:03;;;;;;;2.20;1.87;;;4.30;97.30;;;;;;5370179;26;20458;-87
2024/04/23 07:16:29;;;;;;;1.53;1.50;;;4.40;97.30;;;;;;5373957;26;20562;-87
2024/04/23 07:18:55;;;;;;;3.77;2.20;;;4.50;97.30;;;;;;5376431;26;20527;-87
2024/04/23 07:21:20;;;;;;;1.33;1.23;;;4.70;97.30;;;;;;5377612;26;20888;-87
2024/04/23 07:23:47;;;;;;;1.97;1.87;;;4.80;97.30;;;;;;5377745;26;20230;-87
2024/04/23 07:26:12;;;;;;;3.00;2.80;;;5.00;97.30;;;;;;5377829;26;20641;-85
2024/04/23 07:28:40;;;;;;;2.37;2.17;;;5.10;97.30;;;;;;5371538;26;20541;-87
2024/04/23 07:31:25;;;;;;;1.87;1.77;;;5.10;97.30;;;;;;5369569;26;20277;-86
2024/04/23 07:33:53;;;;;;;1.93;1.83;;;5.30;97.30;;;;;;5367550;26;20468;-87
2024/04/23 07:36:24;;;;;;;3.20;1.63;;;5.30;97.30;;;;;;5376330;26;20568;-87
2024/04/23 07:38:52;;;;;;;2.13;1.97;;;5.40;97.30;;;;;;5391761;26;20516;-87
2024/04/23 07:41:23;;;;;;;3.17;2.97;;;5.60;97.30;;;;;;5372116;26;20553;-87
2024/04/23 07:43:55;;;;;;;1.93;1.77;;;5.70;97.30;;;;;;5376911;26;20508;-87
2024/04/23 07:46:23;;;;;;;1.40;1.30;;;5.80;97.30;;;;;;5388006;26;20524;-86
2024/04/23 07:48:54;;;;;;;1.30;1.30;;;6.00;97.20;;;;;;5379144;26;20904;-86
2024/04/23 07:51:32;;;;;;;1.30;1.20;;;6.00;96.00;;;;;;5379113;26;20876;-86
2024/04/23 07:54:04;;;;;;;1.17;1.07;;;6.10;95.00;;;;;;5389206;26;20864;-86
2024/04/23 07:56:54;;;;;;;1.50;1.40;;;6.10;93.90;;;;;;5379003;26;20935;-88
2024/04/23 07:59:33;;;;;;;1.37;1.27;;;6.20;94.00;;;;;;5379709;26;20519;-86
2024/04/23 08:01:58;;;;;;;2.83;2.00;;;6.20;93.50;;;;;;5342087;21;20552;-62
2024/04/23 08:04:24;;;;;;;1.13;1.03;;;6.30;92.30;;;;;;5300438;27;20557;-62
2024/04/23 08:06:49;;;;;;;1.90;1.80;;;6.30;91.80;;;;;;5303115;27;20823;-63
2024/04/23 08:09:15;;;;;;;1.40;1.30;;;6.30;91.80;;;;;;5305016;27;20279;-62
2024/04/23 08:11:41;;;;;;;1.27;1.17;;;6.40;90.80;;;;;;5304546;26;20712;-62
2024/04/23 08:14:06;;;;;;;1.60;1.50;;;6.50;90.40;;;;;;5305545;26;20273;-61
2024/04/23 08:16:32;;;;;;;1.63;1.30;;;6.60;90.70;;;;;;5290814;26;20990;-63
2024/04/23 08:18:57;;;;;;;1.10;1.00;;;6.70;90.90;;;;;;5291264;26;20322;-62
2024/04/23 08:21:23;;;;;;;1.20;1.10;;;6.70;90.70;;;;;;5314432;26;20409;-62
2024/04/23 08:23:50;;;;;;;2.87;1.97;;;6.80;92.40;;;;;;5297929;26;20616;-62
2024/04/23 08:26:16;;;;;;;1.17;1.07;;;6.90;92.10;;;;;;5272529;26;20236;-62
2024/04/23 08:28:43;;;;;;;2.40;1.90;;;7.00;92.50;;;;;;5283547;26;20576;-62
2024/04/23 08:31:09;;;;;;;2.73;2.10;;;7.20;91.60;;;;;;5299807;26;20357;-62
2024/04/23 08:33:34;;;;;;;3.37;2.70;;;7.20;90.50;;;;;;5271244;26;20910;-62
2024/04/23 08:36:00;;;;;;;1.90;1.83;;;7.30;90.30;;;;;;5284367;27;20267;-61
2024/04/23 08:38:25;;;;;;;1.20;1.17;;;7.40;89.20;;;;;;5284141;27;20233;-62
2024/04/23 08:40:52;;;;;;;1.23;1.20;;;7.40;91.00;;;;;;5311527;26;20245;-62
2024/04/23 08:43:23;;;;;;;3.97;1.20;;;7.50;90.00;;;;;;5286825;27;20679;-62
2024/04/23 08:45:50;;;;;;;48.37;2.20;;;7.70;89.60;;;;;;5306002;26;20895;-62
2024/04/23 08:48:16;;;;;;;1.20;1.10;;;7.80;91.00;;;;;;5293942;26;20507;-61
2024/04/23 08:50:43;;;;;;;1.80;1.73;;;7.90;89.30;;;;;;5305399;26;20673;-62
2024/04/23 08:53:09;;;;;;;1.67;1.57;;;7.90;89.20;;;;;;5305294;26;20236;-61
2024/04/23 08:55:44;;;;;;;6.00;1.90;;;8.00;89.70;;;;;;5293336;26;20619;-61
2024/04/23 08:58:11;;;;;;;2.60;2.50;;;8.30;88.30;;;;;;5293072;26;20282;-60
2024/04/23 09:00:41;;;;;;;1.63;1.50;;;8.40;88.40;;;;;;5279005;26;20579;-62
2024/04/23 09:03:12;;;;;;;1.53;1.43;;;8.50;89.10;;;;;;5295221;26;20942;-62
2024/04/23 09:05:39;;;;;;;1.00;0.90;;;8.60;88.00;;;;;;5292387;27;20918;-62
2024/04/23 09:08:06;;;;;;;4.10;1.33;;;8.90;87.20;;;;;;5307219;26;20474;-62
2024/04/23 09:10:32;;;;;;;1.10;1.00;;;8.90;85.80;;;;;;5285257;26;20476;-61
2024/04/23 09:12:58;;;;;;;1.10;1.00;;;8.80;85.00;;;;;;5273189;27;20460;-62
2024/04/23 09:15:23;;;;;;;1.23;1.13;;;8.60;86.40;;;;;;5300634;26;20472;-61
2024/04/23 09:17:56;;;;;;;2.40;1.87;;;8.40;86.10;;;;;;5307115;26;20228;-62
2024/04/23 09:20:23;;;;;;;1.53;1.40;;;8.30;86.50;;;;;;5306828;26;20233;-61
2024/04/23 09:22:53;;;;;;;1.00;1.00;;;8.50;86.30;;;;;;5307132;26;20455;-61
2024/04/23 09:25:19;;;;;;;0.93;0.83;;;8.70;85.80;;;;;;5304537;27;20526;-61
2024/04/23 09:27:45;;;;;;;2.30;1.57;;;9.00;86.90;;;;;;5272944;27;20570;-61
2024/04/23 09:30:11;;;;;;;1.30;1.20;;;9.20;88.20;;;;;;5299321;27;20463;-61
2024/04/23 09:32:36;;;;;;;1.20;1.10;;;9.50;86.10;;;;;;5306535;26;20482;-61
2024/04/23 09:35:03;;;;;;;1.63;1.27;;;9.60;83.70;;;;;;5305267;26;20240;-61
2024/04/23 09:37:29;;;;;;;1.10;1.00;;;9.70;83.80;;;;;;5281263;26;20271;-62
2024/04/23 09:40:04;;;;;;;1.80;1.57;;;9.80;83.10;;;;;;5302682;26;20467;-63
2024/04/23 09:42:31;;;;;;;1.20;1.17;;;9.90;83.60;;;;;;5287080;26;20235;-62
2024/04/23 09:44:56;;;;;;;1.37;1.27;;;10.00;83.40;;;;;;5293838;27;20524;-63
2024/04/23 09:47:25;;;;;;;1.73;1.63;;;10.00;81.80;;;;;;5286188;26;20535;-62
2024/04/23 09:49:55;;;;;;;1.47;1.10;;;9.80;81.60;;;;;;5304608;26;20240;-62
2024/04/23 09:52:28;;;;;;;1.40;1.30;;;9.60;81.20;;;;;;5291919;26;20893;-62
2024/04/23 09:54:53;;;;;;;0.90;0.80;;;9.40;81.60;;;;;;5303412;26;20467;-63
2024/04/23 09:57:19;;;;;;;0.80;0.70;;;9.10;82.00;;;;;;5304598;27;20515;-62
2024/04/23 09:59:44;;;;;;;1.10;1.00;;;8.90;83.60;;;;;;5305148;26;20278;-62
2024/04/23 10:02:19;;;;;;;1.37;1.13;;;8.80;81.00;;;;;;5304340;27;20244;-62
2024/04/23 10:04:47;;;;;;;1.37;1.13;;;8.70;80.00;;;;;;5303081;27;20248;-62
2024/04/23 10:07:15;;;;;;;0.90;0.83;;;8.60;80.00;;;;;;5305566;26;20567;-62
2024/04/23 10:09:41;;;;;;;1.07;0.97;;;8.50;81.00;;;;;;5303514;26;20468;-62
2024/04/23 10:12:15;;;;;;;1.77;1.67;;;8.40;80.70;;;;;;5303985;26;20463;-62
2024/04/23 10:14:56;;;;;;;1.50;1.40;;;8.40;80.40;;;;;;5304230;26;21051;-62
2024/04/23 10:17:39;;;;;;;1.00;0.90;;;8.40;81.60;;;;;;5303786;27;20586;-62
2024/04/23 10:20:08;;;;;;;1.00;0.90;;;8.30;79.50;;;;;;5295757;27;20451;-62
2024/04/23 10:22:34;;;;;;;1.53;1.47;;;8.30;79.20;;;;;;5303980;26;20587;-62
2024/04/23 10:25:03;;;;;;;1.60;1.50;;;8.30;80.00;;;;;;5305265;26;20520;-62
2024/04/23 10:27:30;;;;;;;1.33;0.90;;;8.60;80.80;;;;;;5303040;27;20467;-62
2024/04/23 10:29:57;;;;;;;1.30;1.20;;;9.10;80.20;;;;;;5304180;27;20471;-61
2024/04/23 10:32:23;;;;;;;1.27;1.20;;;9.50;78.80;;;;;;5302886;27;20474;-61
2024/04/23 10:34:52;;;;;;;2.50;1.17;;;9.50;77.60;;;;;;5305089;26;20519;-62
2024/04/23 10:37:20;;;;;;;0.90;0.80;;;9.60;80.40;;;;;;5300938;27;20584;-61
2024/04/23 10:39:47;;;;;;;0.97;0.87;;;9.80;79.70;;;;;;5302956;27;21077;-62
2024/04/23 10:42:14;;;;;;;1.87;1.70;;;9.60;79.80;;;;;;5304481;26;20482;-62
2024/04/23 10:44:43;;;;;;;0.97;0.87;;;9.40;79.90;;;;;;5304656;26;20853;-62
2024/04/23 10:47:08;;;;;;;1.10;1.00;;;9.20;80.60;;;;;;5303647;27;20474;-62
2024/04/23 10:49:37;;;;;;;1.03;0.90;;;9.10;79.40;;;;;;5303215;27;20467;-63
2024/04/23 10:52:03;;;;;;;2.07;1.40;;;8.90;77.80;;;;;;5300156;26;20362;-61
2024/04/23 10:54:29;;;;;;;0.80;0.70;;;8.80;80.50;;;;;;5298781;27;20597;-62
2024/04/23 10:57:00;;;;;;;0.80;0.70;;;8.80;78.50;;;;;;5304698;26;20530;-62
2024/04/23 10:59:36;;;;;;;1.07;0.97;;;8.80;77.30;;;;;;5302065;26;20675;-62
2024/04/23 11:02:05;;;;;;;1.57;0.97;;;8.80;76.70;;;;;;5304231;26;20517;-62
2024/04/23 11:04:36;;;;;;;0.90;0.90;;;8.80;77.50;;;;;;5299738;27;20549;-62
2024/04/23 11:07:06;;;;;;;0.90;0.80;;;8.80;77.60;;;;;;5305415;26;20502;-62
2024/04/23 11:09:40;;;;;;;1.43;1.33;;;8.80;79.20;;;;;;5305548;26;20462;-62
2024/04/23 11:12:29;;;;;;;1.53;1.43;;;8.90;81.10;;;;;;5306113;26;20634;-62
2024/04/23 11:14:56;;;;;;;1.10;1.00;;;9.60;82.70;;;;;;5299070;26;20508;-62
2024/04/23 11:17:22;;;;;;;3.13;1.20;;;10.30;82.90;;;;;;5285505;27;20455;-63
2024/04/23 11:19:52;;;;;;;5.23;2.43;;;10.80;79.80;;;;;;5305689;26;20463;-62
2024/04/23 11:22:29;;;;;;;1.43;1.40;;;10.80;76.50;;;;;;5303605;26;20471;-62
2024/04/23 11:24:56;;;;;;;1.27;1.10;;;10.60;74.20;;;;;;5298214;26;20607;-62
2024/04/23 11:27:22;;;;;;;1.27;1.23;;;10.80;76.10;;;;;;5271585;27;20479;-63
2024/04/23 11:29:48;;;;;;;1.00;0.93;;;11.20;76.70;;;;;;5298068;26;20521;-61
2024/04/23 11:32:16;;;;;;;1.33;1.23;;;11.50;73.10;;;;;;5285835;27;20582;-61
2024/04/23 11:34:43;;;;;;;1.23;1.13;;;11.80;72.70;;;;;;5301156;26;20567;-62
2024/04/23 11:37:09;;;;;;;1.10;1.00;;;12.20;72.90;;;;;;5293221;26;20506;-61
2024/04/23 11:39:36;;;;;;;0.77;0.73;;;12.70;76.90;;;;;;5299902;27;20558;-61
2024/04/23 11:44:32;;;;;;;1.00;0.90;;;13.10;73.20;;;;;;5342275;26;20909;-83
2024/04/23 11:46:58;;;;;;;4.10;1.87;;;13.00;70.80;;;;;;5336747;26;20465;-84
2024/04/23 11:49:25;;;;;;;1.40;1.30;;;13.10;72.70;;;;;;5338516;26;20295;-83
2024/04/23 11:51:50;;;;;;;1.10;1.00;;;13.40;72.50;;;;;;5318872;26;20712;-84
2024/04/23 11:54:17;;;;;;;1.17;1.17;;;13.70;73.30;;;;;;5314540;26;20470;-83
2024/04/23 11:56:43;;;;;;;1.70;0.90;;;13.80;72.10;;;;;;5315546;26;20810;-83
2024/04/23 11:59:18;;;;;;;1.00;0.90;;;13.80;71.00;;;;;;5318000;26;20525;-83
2024/04/23 12:01:44;;;;;;;1.10;1.00;;;13.70;69.20;;;;;;5318572;26;20876;-82
2024/04/23 12:04:11;;;;;;;1.10;1.00;;;13.90;72.30;;;;;;5317165;26;20529;-85
2024/04/23 12:06:39;;;;;;;1.40;1.30;;;13.90;71.00;;;;;;5345919;26;20588;-85
2024/04/23 12:09:05;;;;;;;1.10;1.00;;;13.20;70.40;;;;;;5316639;26;20473;-84
2024/04/23 12:11:32;;;;;;;1.10;1.00;;;12.70;71.60;;;;;;5317417;26;20477;-83
2024/04/23 12:13:58;;;;;;;1.47;1.37;;;12.30;71.90;;;;;;5318824;26;20533;-83
2024/04/23 12:16:24;;;;;;;2.90;1.00;;;11.80;71.60;;;;;;5313109;26;20477;-84
2024/04/23 12:18:50;;;;;;;1.30;1.10;;;11.60;72.80;;;;;;5325178;26;20513;-81
2024/04/23 12:21:16;;;;;;;1.13;0.90;;;11.40;73.90;;;;;;5368782;26;20230;-83
2024/04/23 12:23:41;;;;;;;1.37;1.10;;;11.20;73.20;;;;;;5354082;26;20261;-81
2024/04/23 12:26:12;;;;;;;0.90;0.80;;;11.20;72.30;;;;;;5360587;26;20465;-83
2024/04/23 12:28:39;;;;;;;1.40;1.30;;;11.10;72.40;;;;;;5324550;26;20268;-83
2024/04/23 12:31:04;;;;;;;1.40;1.00;;;11.00;74.10;;;;;;5323898;26;20572;-82
2024/04/23 12:33:30;;;;;;;1.00;0.90;;;11.20;74.70;;;;;;5357405;26;20469;-83
2024/04/23 12:36:07;;;;;;;1.17;1.07;;;11.30;75.10;;;;;;5355562;26;20269;-84
2024/04/23 12:38:41;;;;;;;1.20;1.10;;;11.30;74.30;;;;;;5346108;26;20231;-83
2024/04/23 12:41:06;;;;;;;1.17;1.07;;;11.10;74.90;;;;;;5313942;26;21006;-83
2024/04/23 12:43:32;;;;;;;2.87;1.90;;;11.00;74.30;;;;;;5341260;26;20521;-83
2024/04/23 12:45:58;;;;;;;1.43;1.33;;;11.00;75.00;;;;;;5306354;26;20296;-83
2024/04/23 12:48:23;;;;;;;3.07;1.70;;;11.00;77.70;;;;;;5306932;26;20244;-83
2024/04/23 12:50:48;;;;;;;1.17;1.07;;;11.10;74.90;;;;;;5356491;26;20243;-83
2024/04/23 12:53:14;;;;;;;1.00;0.90;;;11.20;75.90;;;;;;5357495;26;20269;-82
2024/04/23 12:55:40;;;;;;;1.27;1.17;;;11.70;76.30;;;;;;5325439;26;20253;-82
2024/04/23 12:58:05;;;;;;;1.17;1.00;;;11.90;76.00;;;;;;5310894;26;20251;-82
2024/04/23 13:00:30;;;;;;;1.10;1.00;;;11.80;74.00;;;;;;5338986;26;20273;-83
2024/04/23 13:02:56;;;;;;;1.87;1.77;;;11.60;75.00;;;;;;5342138;26;20270;-83
2024/04/23 13:05:21;;;;;;;0.90;0.80;;;11.40;75.90;;;;;;5341847;26;20246;-83
2024/04/23 13:07:47;;;;;;;1.10;1.00;;;11.40;74.60;;;;;;5310246;26;20235;-83
2024/04/23 13:10:14;;;;;;;1.37;1.20;;;12.00;73.90;;;;;;5311269;26;20258;-83
2024/04/23 13:12:40;;;;;;;1.27;1.17;;;12.70;75.20;;;;;;5341642;26;20462;-82
2024/04/23 13:15:05;;;;;;;0.90;0.90;;;13.20;71.80;;;;;;5341781;26;20569;-83
2024/04/23 13:17:30;;;;;;;1.40;1.30;;;13.30;70.40;;;;;;5310999;26;20235;-83
2024/04/23 13:19:56;;;;;;;1.03;0.93;;;13.00;69.40;;;;;;5310677;26;20235;-82
2024/04/23 13:22:21;;;;;;;2.27;1.53;;;12.60;70.40;;;;;;5307592;26;20323;-82
2024/04/23 13:24:47;;;;;;;0.70;0.70;;;12.10;71.80;;;;;;5343059;26;20270;-83
2024/04/23 13:27:12;;;;;;;2.20;1.37;;;11.70;72.90;;;;;;5341526;26;20231;-83
2024/04/23 13:29:38;;;;;;;1.73;1.43;;;11.40;72.00;;;;;;5310958;26;20867;-83
2024/04/23 13:32:08;;;;;;;1.07;0.97;;;11.20;74.10;;;;;;5350575;26;20982;-83
2024/04/23 13:34:33;;;;;;;0.90;0.80;;;11.20;73.30;;;;;;5339639;26;20234;-83
2024/04/23 13:37:00;;;;;;;1.47;1.17;;;11.30;74.00;;;;;;5342487;26;20513;-82
2024/04/23 13:39:25;;;;;;;1.00;0.90;;;11.60;74.80;;;;;;5310978;26;20282;-82
2024/04/23 13:41:50;;;;;;;2.10;1.60;;;12.50;73.30;;;;;;5341526;26;20514;-83
2024/04/23 13:44:16;;;;;;;1.00;0.90;;;13.40;71.90;;;;;;5313261;26;20282;-82
2024/04/23 13:46:41;;;;;;;1.00;0.90;;;14.10;67.90;;;;;;5339375;26;20717;-83
2024/04/23 13:49:10;;;;;;;1.10;0.90;;;15.00;67.20;;;;;;5313361;26;20609;-83
2024/04/23 13:51:36;;;;;;;1.20;1.10;;;15.40;64.50;;;;;;5309875;26;20558;-83
2024/04/23 13:54:01;;;;;;;1.23;1.13;;;15.20;64.20;;;;;;5326447;26;20469;-83
2024/04/23 13:56:27;;;;;;;1.30;1.30;;;14.80;65.20;;;;;;5342209;26;20580;-82
2024/04/23 13:58:52;;;;;;;1.40;1.20;;;14.30;67.70;;;;;;5342435;26;20771;-83
2024/04/23 14:01:17;;;;;;;1.00;1.00;;;13.50;70.50;;;;;;5339289;26;20231;-82
2024/04/23 14:03:43;;;;;;;1.43;1.33;;;13.00;69.70;;;;;;5340520;26;20293;-83
2024/04/23 14:06:08;;;;;;;1.57;1.50;;;12.70;69.20;;;;;;5313478;26;20242;-82
2024/04/23 14:08:35;;;;;;;1.27;1.17;;;12.50;69.30;;;;;;5311938;26;20626;-82
2024/04/23 14:11:08;;;;;;;5.27;2.27;;;12.20;69.50;;;;;;5340712;26;20227;-82
2024/04/23 14:13:34;;;;;;;1.53;1.47;;;12.00;70.70;;;;;;5309956;26;20525;-82
2024/04/23 14:16:10;;;;;;;1.03;0.97;;;11.80;72.70;;;;;;5343483;26;20458;-83
2024/04/23 14:18:36;;;;;;;1.00;0.90;;;11.60;72.90;;;;;;5309338;26;20543;-83
2024/04/23 14:21:02;;;;;;;1.23;1.00;;;11.70;71.80;;;;;;5343112;26;20494;-83
2024/04/23 14:23:34;;;;;;;1.10;1.00;;;11.70;71.80;;;;;;5306984;26;20734;-82
2024/04/23 14:26:00;;;;;;;7.23;2.00;;;11.70;71.80;;;;;;5308625;26;20239;-83
2024/04/23 14:28:29;;;;;;;1.00;0.90;;;11.70;71.90;;;;;;5310714;26;20521;-83
2024/04/23 14:31:00;;;;;;;2.20;1.73;;;11.70;74.20;;;;;;5305924;26;20821;-82
2024/04/23 14:33:25;;;;;;;1.10;1.00;;;11.80;71.80;;;;;;5339141;26;20462;-83
2024/04/23 14:35:51;;;;;;;1.90;1.10;;;12.30;69.60;;;;;;5320196;26;20506;-83
2024/04/23 14:38:16;;;;;;;3.93;1.80;;;12.80;69.90;;;;;;5310882;26;20235;-82
2024/04/23 14:40:42;;;;;;;1.13;1.03;;;12.60;69.30;;;;;;5311495;26;20239;-82
2024/04/23 14:43:07;;;;;;;3.33;1.10;;;12.30;68.30;;;;;;5342885;26;20231;-83
2024/04/23 14:45:34;;;;;;;1.00;0.90;;;12.10;68.40;;;;;;5337563;26;20242;-82
2024/04/23 14:47:59;;;;;;;0.90;0.80;;;11.90;69.60;;;;;;5352225;26;20788;-83
2024/04/23 14:50:26;;;;;;;0.90;0.80;;;11.70;71.20;;;;;;5308810;26;20473;-83
2024/04/23 14:52:52;;;;;;;1.10;1.00;;;11.50;72.20;;;;;;5307655;26;20867;-82
2024/04/23 14:55:17;;;;;;;1.10;1.00;;;11.30;71.50;;;;;;5338718;26;20473;-83
2024/04/23 14:57:43;;;;;;;1.00;0.90;;;11.10;73.60;;;;;;5328841;26;20254;-83
2024/04/23 15:00:10;;;;;;;1.00;0.90;;;11.10;73.10;;;;;;5311769;26;20242;-83
2024/04/23 15:02:35;;;;;;;1.27;1.07;;;11.10;73.40;;;;;;5308314;26;20235;-83
2024/04/23 15:05:01;;;;;;;1.40;1.10;;;11.10;72.40;;;;;;5338537;26;20804;-83
2024/04/23 15:07:30;;;;;;;0.90;0.90;;;11.10;72.60;;;;;;5341479;26;20227;-81
2024/04/23 15:09:57;;;;;;;1.37;1.30;;;11.10;74.70;;;;;;5310644;26;20569;-83
2024/04/23 15:12:23;;;;;;;1.50;1.47;;;11.10;73.00;;;;;;5312301;26;20489;-82
2024/04/23 15:14:50;;;;;;;3.47;1.10;;;11.20;73.60;;;;;;5307445;26;20521;-82
2024/04/23 15:17:15;;;;;;;1.13;1.03;;;11.10;73.10;;;;;;5308384;26;20446;-82
2024/04/23 15:19:44;;;;;;;1.50;1.40;;;11.20;73.70;;;;;;5339634;26;20578;-83
2024/04/23 15:22:10;;;;;;;1.20;1.10;;;11.60;73.90;;;;;;5333246;26;20227;-83
2024/04/23 15:24:38;;;;;;;2.27;2.10;;;11.60;72.40;;;;;;5342258;26;20585;-82
2024/04/23 15:27:04;;;;;;;1.17;1.07;;;11.50;71.70;;;;;;5329684;26;20234;-83
2024/04/23 15:29:29;;;;;;;1.10;1.00;;;11.50;71.90;;;;;;5336745;26;20518;-82
2024/04/23 15:31:55;;;;;;;1.10;1.00;;;11.40;72.40;;;;;;5308025;26;20818;-81
2024/04/23 15:34:20;;;;;;;1.40;1.30;;;11.40;72.90;;;;;;5311945;26;20251;-82
2024/04/23 15:36:46;;;;;;;1.10;1.00;;;11.40;71.60;;;;;;5305939;26;20325;-83
2024/04/23 15:39:11;;;;;;;2.97;1.40;;;11.40;71.30;;;;;;5341374;26;20562;-83
2024/04/23 15:41:37;;;;;;;1.27;1.17;;;11.40;71.70;;;;;;5311633;26;20740;-83
2024/04/23 15:44:04;;;;;;;1.50;1.40;;;11.30;72.80;;;;;;5335290;26;20729;-82
2024/04/23 15:46:29;;;;;;;1.20;1.17;;;11.30;73.20;;;;;;5303847;26;20724;-83
2024/04/23 15:48:57;;;;;;;0.90;0.90;;;11.70;73.80;;;;;;5337955;26;20592;-83
2024/04/23 15:51:22;;;;;;;4.93;2.00;;;12.00;72.00;;;;;;5312732;26;20270;-82
2024/04/23 15:53:48;;;;;;;1.43;1.40;;;12.10;71.80;;;;;;5309386;26;20469;-83
2024/04/23 15:56:14;;;;;;;1.30;1.20;;;12.20;70.80;;;;;;5301598;26;20235;-84
2024/04/23 15:58:39;;;;;;;3.07;1.67;;;11.90;72.50;;;;;;5308025;26;20244;-83
2024/04/23 16:01:07;;;;;;;1.20;1.10;;;12.40;72.20;;;;;;5306500;26;21776;-83
2024/04/23 16:03:34;;;;;;;1.30;1.30;;;12.90;71.20;;;;;;5339560;26;20353;-83
2024/04/23 16:06:00;;;;;;;1.00;0.90;;;12.90;70.40;;;;;;5305439;26;20904;-83
2024/04/23 16:08:25;;;;;;;1.40;1.33;;;12.90;71.00;;;;;;5305078;26;20512;-81
2024/04/23 16:10:51;;;;;;;1.30;1.20;;;13.10;69.50;;;;;;5296791;26;20240;-83
2024/04/23 16:13:16;;;;;;;1.00;0.90;;;13.20;69.40;;;;;;5308128;26;20255;-83
2024/04/23 16:15:42;;;;;;;1.07;0.97;;;13.40;69.40;;;;;;5303217;26;20309;-83
2024/04/23 16:18:08;;;;;;;4.30;2.10;;;13.20;69.50;;;;;;5306443;26;20235;-84
2024/04/23 16:20:33;;;;;;;1.30;1.20;;;13.00;70.10;;;;;;5305880;26;20273;-83
2024/04/23 16:22:59;;;;;;;1.00;0.90;;;12.60;70.80;;;;;;5336086;26;20544;-83
2024/04/23 16:25:24;;;;;;;1.33;1.23;;;12.10;72.10;;;;;;5341860;26;20302;-83
2024/04/23 16:27:50;;;;;;;1.20;1.10;;;12.60;71.40;;;;;;5304358;26;20321;-82
2024/04/23 16:30:15;;;;;;;1.10;1.00;;;13.50;69.10;;;;;;5341796;26;20606;-83
2024/04/23 16:32:41;;;;;;;1.93;1.40;;;14.30;68.60;;;;;;5335441;26;20307;-83
2024/04/23 16:35:06;;;;;;;1.10;1.00;;;14.70;67.30;;;;;;5310550;26;20235;-83
2024/04/23 16:37:33;;;;;;;3.83;1.73;;;15.10;66.80;;;;;;5334417;26;20311;-83
2024/04/23 16:39:59;;;;;;;2.10;1.00;;;15.40;66.60;;;;;;5341472;26;20768;-84
2024/04/23 16:42:25;;;;;;;1.50;1.40;;;15.70;65.60;;;;;;5336027;26;20557;-83
2024/04/23 16:44:50;;;;;;;1.10;1.10;;;15.70;65.50;;;;;;5345054;26;20656;-82
2024/04/23 16:47:16;;;;;;;1.43;1.33;;;15.60;65.20;;;;;;5340587;26;20473;-83
2024/04/23 16:49:41;;;;;;;1.33;1.20;;;15.60;65.70;;;;;;5310797;26;20230;-83
2024/04/23 16:52:07;;;;;;;2.83;2.00;;;15.40;64.50;;;;;;5341692;26;20299;-83
2024/04/23 16:54:33;;;;;;;2.03;1.53;;;14.90;66.50;;;;;;5305505;26;20274;-84
2024/04/23 16:56:58;;;;;;;2.50;1.90;;;14.90;66.60;;;;;;5340241;26;20231;-83
2024/04/23 16:59:24;;;;;;;1.20;1.10;;;14.50;66.50;;;;;;5305206;26;20274;-83
2024/04/23 17:01:51;;;;;;;1.20;1.10;;;14.30;67.30;;;;;;5329690;26;20283;-84